createdAt,value
2022-09-11T17:21:16.482Z,101426.59
2022-09-11T17:23:43.436Z,101420.97
2022-09-11T17:26:12.573Z,101422.03
2022-09-11T17:28:40.692Z,101421.50
2022-09-11T17:31:09.652Z,101418.16
2022-09-11T17:33:38.226Z,101420.81
2022-09-11T17:36:07.001Z,101423.97
2022-09-11T17:38:35.760Z,101419.75
2022-09-11T17:41:05.274Z,101416.16
2022-09-11T17:43:33.238Z,101416.84
2022-09-11T17:46:00.984Z,101413.44
2022-09-11T17:48:27.821Z,101413.81
2022-09-11T17:51:00.217Z,101414.84
2022-09-11T17:53:27.063Z,101418.75
2022-09-11T17:56:01.283Z,101415.81
2022-09-11T17:58:29.425Z,101415.72
2022-09-11T18:01:00.526Z,101415.56
2022-09-11T18:03:28.955Z,101414.25
2022-09-11T18:05:56.275Z,101418.19
2022-09-11T18:08:23.575Z,101408.81
2022-09-11T18:10:52.159Z,101412.00
2022-09-11T18:13:23.294Z,101419.56
2022-09-11T18:15:51.018Z,101411.84
2022-09-11T18:18:17.935Z,101412.69
2022-09-11T18:20:45.090Z,101413.53
2022-09-11T18:23:12.387Z,101409.31
2022-09-11T18:25:40.801Z,101417.13
2022-09-11T18:28:09.762Z,101416.06
2022-09-11T18:30:41.253Z,101418.53
2022-09-11T18:33:10.944Z,101420.63
2022-09-11T18:35:39.149Z,101414.28
2022-09-11T18:38:06.725Z,101411.94
2022-09-11T18:40:33.959Z,101417.75
2022-09-11T18:43:00.928Z,101418.09
2022-09-11T18:45:31.183Z,101427.56
2022-09-11T18:48:00.121Z,101423.81
2022-09-11T18:50:27.167Z,101424.19
2022-09-11T18:52:53.955Z,101419.50
2022-09-11T18:55:23.884Z,101421.91
2022-09-11T18:57:51.074Z,101422.22
2022-09-11T19:00:18.722Z,101418.81
2022-09-11T19:02:46.137Z,101424.09
2022-09-11T19:05:17.843Z,101423.00
2022-09-11T19:07:47.216Z,101422.34
2022-09-11T19:10:14.455Z,101424.91
2022-09-11T19:12:41.483Z,101417.69
2022-09-11T19:15:09.059Z,101424.75
2022-09-11T19:17:37.698Z,101422.16
2022-09-11T19:20:08.175Z,101400.47
2022-09-11T19:22:36.395Z,101402.47
2022-09-11T19:25:03.974Z,101400.00
2022-09-11T19:27:34.002Z,101401.22
2022-09-11T19:30:00.823Z,101407.31
2022-09-11T19:32:28.440Z,101404.88
2022-09-11T19:34:55.411Z,101406.88
2022-09-11T19:37:22.350Z,101398.75
2022-09-11T19:39:50.836Z,101401.22
2022-09-11T19:42:17.986Z,101401.22
2022-09-11T19:44:45.617Z,101407.28
2022-09-11T19:47:12.509Z,101413.78
2022-09-11T19:49:39.442Z,101405.25
2022-09-11T19:52:08.108Z,101405.66
2022-09-11T19:54:35.487Z,101403.59
2022-09-11T19:57:04.805Z,101410.47
2022-09-11T19:59:32.752Z,101419.00
2022-09-11T20:02:00.471Z,101416.59
2022-09-11T20:04:28.027Z,101427.06
2022-09-11T20:09:31.087Z,101428.25
2022-09-11T20:12:00.503Z,101429.50
2022-09-11T20:14:29.960Z,101434.84
2022-09-11T20:16:56.757Z,101431.16
2022-09-11T20:19:23.714Z,101427.06
2022-09-11T20:21:50.633Z,101423.03
2022-09-11T20:24:17.472Z,101424.19
2022-09-11T20:26:44.308Z,101425.38
2022-09-11T20:29:14.878Z,101416.50
2022-09-11T20:31:48.893Z,101419.34
2022-09-11T20:34:17.008Z,101422.22
2022-09-11T20:36:43.761Z,101422.13
2022-09-11T20:39:13.534Z,101416.06
2022-09-11T20:41:40.853Z,101411.63
2022-09-11T20:44:07.676Z,101420.91
2022-09-11T20:46:34.583Z,101421.75
2022-09-11T20:49:04.880Z,101424.59
2022-09-11T20:51:33.027Z,101420.50
2022-09-11T20:54:00.515Z,101422.91
2022-09-11T20:56:27.945Z,101420.09
2022-09-11T20:58:54.779Z,101430.63
2022-09-11T21:01:23.688Z,101430.22
2022-09-11T21:03:52.095Z,101426.50
2022-09-11T21:06:25.871Z,101421.59
2022-09-11T21:08:55.392Z,101421.22
2022-09-11T21:11:22.268Z,101422.81
2022-09-11T21:13:49.094Z,101411.06
2022-09-11T21:16:20.081Z,101411.44
2022-09-11T21:18:49.477Z,101407.78
2022-09-11T21:21:16.957Z,101401.72
2022-09-11T21:23:45.528Z,101406.94
2022-09-11T21:26:14.098Z,101407.31
2022-09-11T21:28:41.243Z,101404.84
2022-09-11T21:31:08.243Z,101399.97
2022-09-11T21:33:36.085Z,101397.97
2022-09-11T21:36:03.278Z,101405.25
2022-09-11T21:38:31.017Z,101404.78
2022-09-11T21:41:01.094Z,101403.91
2022-09-11T21:43:28.856Z,101406.66
2022-09-11T21:45:55.797Z,101407.53
2022-09-11T21:48:23.325Z,101402.66
2022-09-11T21:50:51.609Z,101401.41
2022-09-11T21:53:18.521Z,101395.72
2022-09-11T21:55:47.020Z,101407.88
2022-09-11T21:58:17.575Z,101403.78
2022-09-11T22:00:45.423Z,101404.19
2022-09-11T22:03:12.981Z,101404.59
2022-09-11T22:05:40.913Z,101404.59
2022-09-11T22:08:07.675Z,101403.81
2022-09-11T22:10:34.412Z,101400.06
2022-09-11T22:13:01.222Z,101399.25
2022-09-11T22:15:29.304Z,101401.28
2022-09-11T22:17:56.204Z,101394.81
2022-09-11T22:20:23.064Z,101393.09
2022-09-11T22:22:50.366Z,101397.88
2022-09-11T22:25:17.350Z,101394.69
2022-09-11T22:27:45.918Z,101391.41
2022-09-11T22:30:13.985Z,101387.78
2022-09-11T22:32:42.098Z,101392.66
2022-09-11T22:35:09.199Z,101397.97
2022-09-11T22:37:36.091Z,101392.28
2022-09-11T22:40:04.756Z,101391.50
2022-09-11T22:42:31.657Z,101392.19
2022-09-11T22:44:58.718Z,101385.72
2022-09-11T22:47:25.654Z,101380.03
2022-09-11T22:49:53.748Z,101383.25
2022-09-11T22:52:20.516Z,101382.13
2022-09-11T22:54:47.564Z,101374.41
2022-09-11T22:57:14.320Z,101379.22
2022-09-11T22:59:41.016Z,101373.91
2022-09-11T23:02:07.991Z,101367.81
2022-09-11T23:04:34.957Z,101365.31
2022-09-11T23:07:16.039Z,101371.13
2022-09-11T23:09:43.684Z,101369.28
2022-09-11T23:12:10.805Z,101366.44
2022-09-11T23:14:37.629Z,101372.50
2022-09-11T23:17:04.783Z,101361.94
2022-09-11T23:19:32.614Z,101360.28
2022-09-11T23:21:59.431Z,101362.34
2022-09-11T23:24:27.698Z,101366.75
2022-09-11T23:26:54.547Z,101356.09
2022-09-11T23:29:21.434Z,101357.56
2022-09-11T23:31:48.279Z,101353.91
2022-09-11T23:34:16.806Z,101358.19
2022-09-11T23:36:44.082Z,101357.06
2022-09-11T23:39:11.154Z,101346.16
2022-09-11T23:41:39.482Z,101346.94
2022-09-11T23:44:06.305Z,101348.44
2022-09-11T23:46:33.129Z,101344.31
2022-09-11T23:48:59.998Z,101336.72
2022-09-11T23:51:26.951Z,101333.78
2022-09-11T23:53:53.793Z,101339.13
2022-09-11T23:56:22.381Z,101338.28
2022-09-11T23:58:51.423Z,101336.25
